createdAt,value
2022-11-09T00:00:02.390Z,95474.06
2022-11-09T00:02:31.763Z,95477.97
2022-11-09T00:04:58.844Z,95475.28
2022-11-09T00:07:25.881Z,95485.97
2022-11-09T00:09:53.030Z,95489.84
2022-11-09T00:12:20.105Z,95484.38
2022-11-09T00:14:47.235Z,95480.47
2022-11-09T00:17:14.476Z,95480.47
2022-11-09T00:19:41.530Z,95488.75
2022-11-09T00:22:08.585Z,95474.97
2022-11-09T00:24:35.736Z,95476.56
2022-11-09T00:27:02.825Z,95474.97
2022-11-09T00:29:29.926Z,95478.56
2022-11-09T00:31:56.974Z,95464.81
2022-11-09T00:34:24.092Z,95454.56
2022-11-09T00:36:51.131Z,95438.81
2022-11-09T00:39:18.299Z,95433.41
2022-11-09T00:41:45.359Z,95443.97
2022-11-09T00:44:12.460Z,95436.88
2022-11-09T00:46:39.714Z,95435.38
2022-11-09T00:49:06.939Z,95440.88
2022-11-09T00:51:34.096Z,95438.09
2022-11-09T00:54:01.189Z,95437.72
2022-11-09T00:56:29.193Z,95449.13
2022-11-09T00:58:56.366Z,95455.06
2022-11-09T01:01:23.836Z,95457.44
2022-11-09T01:03:51.109Z,95458.63
2022-11-09T01:06:23.756Z,95466.44
2022-11-09T01:08:51.974Z,95456.25
2022-11-09T01:11:20.264Z,95440.19
2022-11-09T01:13:47.892Z,95430.69
2022-11-09T01:16:18.161Z,95432.72
2022-11-09T01:18:46.020Z,95426.38
2022-11-09T01:21:15.359Z,95435.88
2022-11-09T01:23:43.087Z,95435.09
2022-11-09T01:26:12.628Z,95435.09
2022-11-09T01:28:39.996Z,95433.94
2022-11-09T01:31:14.451Z,95435.94
2022-11-09T01:33:42.417Z,95443.75
2022-11-09T01:36:12.801Z,95445.38
2022-11-09T01:38:40.274Z,95446.56
2022-11-09T01:41:13.853Z,95456.44
2022-11-09T01:43:41.104Z,95450.16
2022-11-09T01:46:28.383Z,95437.53
2022-11-09T01:49:03.359Z,95444.56
2022-11-09T01:51:50.674Z,95435.94
2022-11-09T01:54:23.381Z,95422.56
2022-11-09T01:56:54.233Z,95430.94
2022-11-09T01:59:27.378Z,95432.84
2022-11-09T02:01:54.624Z,95435.31
2022-11-09T02:04:27.589Z,95435.28
2022-11-09T02:06:57.269Z,95423.09
2022-11-09T02:09:31.072Z,95421.50
2022-11-09T02:12:00.117Z,95418.75
2022-11-09T02:14:29.906Z,95423.44
2022-11-09T02:16:57.144Z,95414.81
2022-11-09T02:19:24.277Z,95430.47
2022-11-09T02:21:51.649Z,95421.06
2022-11-09T02:24:19.382Z,95421.06
2022-11-09T02:26:52.120Z,95423.41
2022-11-09T02:29:27.539Z,95412.38
2022-11-09T02:31:59.707Z,95419.13
2022-11-09T02:34:27.933Z,95415.19
2022-11-09T02:36:55.180Z,95407.63
2022-11-09T02:39:25.550Z,95408.38
2022-11-09T02:42:02.969Z,95412.75
2022-11-09T02:44:38.260Z,95410.38
2022-11-09T02:47:05.319Z,95404.44
2022-11-09T02:49:32.413Z,95414.63
2022-11-09T02:51:59.755Z,95420.94
2022-11-09T02:54:26.807Z,95419.41
2022-11-09T02:56:54.771Z,95421.00
2022-11-09T02:59:22.349Z,95431.19
2022-11-09T03:01:49.609Z,95432.75
2022-11-09T03:04:16.716Z,95437.47
2022-11-09T03:06:44.168Z,95437.13
2022-11-09T03:09:14.919Z,95441.84
2022-11-09T03:11:43.029Z,95445.72
2022-11-09T03:14:12.263Z,95445.38
2022-11-09T03:16:50.233Z,95441.47
2022-11-09T03:19:18.103Z,95443.03
2022-11-09T03:21:47.078Z,95432.06
2022-11-09T03:24:14.168Z,95452.38
2022-11-09T03:26:42.245Z,95448.47
2022-11-09T03:29:09.382Z,95448.88
2022-11-09T03:31:36.984Z,95435.50
2022-11-09T03:34:07.790Z,95439.78
2022-11-09T03:36:35.856Z,95440.63
2022-11-09T03:39:03.435Z,95439.81
2022-11-09T03:41:30.667Z,95431.91
2022-11-09T03:43:57.756Z,95428.00
2022-11-09T03:46:24.830Z,95412.31
2022-11-09T03:48:51.884Z,95407.56
2022-11-09T03:51:19.280Z,95410.03
2022-11-09T03:53:46.394Z,95407.63
2022-11-09T03:56:13.469Z,95409.59
2022-11-09T03:58:40.532Z,95406.16
2022-11-09T04:01:07.718Z,95415.50
2022-11-09T04:03:34.887Z,95419.47
2022-11-09T04:06:01.960Z,95414.00
2022-11-09T04:08:29.062Z,95417.13
2022-11-09T04:10:56.136Z,95419.88
2022-11-09T04:13:23.196Z,95406.94
2022-11-09T04:15:50.290Z,95417.13
2022-11-09T04:18:17.483Z,95409.31
2022-11-09T04:20:45.073Z,95415.97
2022-11-09T04:23:13.818Z,95397.91
2022-11-09T04:25:41.732Z,95381.84
2022-11-09T04:28:12.341Z,95374.72
2022-11-09T04:30:39.502Z,95364.16
2022-11-09T04:33:06.560Z,95364.94
2022-11-09T04:35:34.738Z,95374.78
2022-11-09T04:38:06.832Z,95379.50
2022-11-09T04:40:35.712Z,95381.84
2022-11-09T04:43:04.975Z,95394.44
2022-11-09T04:45:35.742Z,95398.44
2022-11-09T04:48:05.289Z,95400.78
2022-11-09T04:50:32.677Z,95399.13
2022-11-09T04:53:08.329Z,95402.31
2022-11-09T04:55:35.894Z,95413.25
2022-11-09T04:58:03.112Z,95410.13
2022-11-09T05:00:31.011Z,95399.53
2022-11-09T05:03:05.357Z,95399.94
2022-11-09T05:05:37.231Z,95399.94
2022-11-09T05:08:05.843Z,95392.88
2022-11-09T05:10:32.951Z,95388.19
2022-11-09T05:13:02.186Z,95386.66
2022-11-09T05:15:29.299Z,95401.97
2022-11-09T05:17:57.038Z,95401.59
2022-11-09T05:20:24.777Z,95405.53
2022-11-09T05:23:10.929Z,95403.94
2022-11-09T05:25:38.010Z,95402.75
2022-11-09T05:28:05.647Z,95411.75
2022-11-09T05:30:32.772Z,95426.69
2022-11-09T05:32:59.831Z,95425.16
2022-11-09T05:35:26.890Z,95422.75
2022-11-09T05:37:53.959Z,95418.06
2022-11-09T05:40:21.264Z,95415.63
2022-11-09T05:42:48.320Z,95417.63
2022-11-09T05:48:05.169Z,95440.00
2022-11-09T05:50:32.433Z,95431.41
2022-11-09T05:53:18.090Z,95425.09
2022-11-09T05:55:45.427Z,95432.13
2022-11-09T05:58:12.556Z,95429.78
2022-11-09T06:00:39.689Z,95427.41
2022-11-09T06:03:08.504Z,95425.03
2022-11-09T06:05:36.685Z,95424.22
2022-11-09T06:08:05.626Z,95441.09
2022-11-09T06:10:32.912Z,95443.84
2022-11-09T06:12:59.966Z,95435.25
2022-11-09T06:15:27.141Z,95452.47
2022-11-09T06:17:55.352Z,95450.19
2022-11-09T06:20:23.124Z,95457.22
2022-11-09T06:22:56.564Z,95461.53
2022-11-09T06:25:28.112Z,95476.09
2022-11-09T06:27:55.785Z,95474.09
2022-11-09T06:30:23.353Z,95466.66
2022-11-09T06:32:50.388Z,95477.25
2022-11-09T06:35:17.491Z,95483.53
2022-11-09T06:37:44.528Z,95470.59
2022-11-09T06:40:12.580Z,95486.31
2022-11-09T06:42:39.723Z,95479.63
2022-11-09T06:45:07.330Z,95482.78
2022-11-09T06:47:34.369Z,95487.84
2022-11-09T06:50:01.472Z,95481.63
2022-11-09T06:52:28.510Z,95483.22
2022-11-09T06:54:55.572Z,95489.53
2022-11-09T06:57:22.649Z,95488.31
2022-11-09T06:59:49.737Z,95495.00
2022-11-09T07:02:18.165Z,95499.69
2022-11-09T07:04:45.580Z,95503.63
2022-11-09T07:07:12.984Z,95518.53
2022-11-09T07:09:40.072Z,95521.69
2022-11-09T07:12:07.222Z,95519.25
2022-11-09T07:14:34.364Z,95518.50
2022-11-09T07:17:01.737Z,95510.22
2022-11-09T07:19:29.867Z,95516.13
2022-11-09T07:21:57.414Z,95516.47
2022-11-09T07:24:24.473Z,95523.13
2022-11-09T07:26:51.762Z,95518.44
2022-11-09T07:29:18.881Z,95519.19
2022-11-09T07:31:45.995Z,95522.34
2022-11-09T07:34:13.143Z,95523.53
2022-11-09T07:36:40.385Z,95527.78
2022-11-09T07:39:07.512Z,95528.59
2022-11-09T07:41:35.103Z,95527.00
2022-11-09T07:44:02.345Z,95525.03
2022-11-09T07:46:29.520Z,95527.81
2022-11-09T07:48:56.654Z,95522.66
2022-11-09T07:51:23.731Z,95520.34
2022-11-09T07:53:50.784Z,95527.84
2022-11-09T07:56:18.067Z,95530.97
2022-11-09T07:58:45.149Z,95529.06
2022-11-09T08:01:12.552Z,95527.09
2022-11-09T08:03:39.834Z,95538.06
2022-11-09T08:06:07.218Z,95540.44
2022-11-09T08:08:34.310Z,95549.91
2022-11-09T08:11:01.382Z,95549.91
2022-11-09T08:13:28.483Z,95559.31
2022-11-09T08:15:55.546Z,95570.28
2022-11-09T08:18:23.465Z,95563.97
2022-11-09T08:20:50.710Z,95564.72
2022-11-09T08:23:19.382Z,95562.25
2022-11-09T08:25:48.135Z,95559.06
2022-11-09T08:28:18.719Z,95551.63
2022-11-09T08:30:46.672Z,95555.03
2022-11-09T08:33:14.168Z,95561.31
2022-11-09T08:35:41.262Z,95559.09
2022-11-09T08:38:09.527Z,95566.88
2022-11-09T08:40:36.886Z,95560.28
2022-11-09T08:43:07.634Z,95569.34
2022-11-09T08:45:36.576Z,95573.19
2022-11-09T08:48:04.929Z,95570.81
2022-11-09T08:50:34.310Z,95566.06
2022-11-09T08:53:03.234Z,95574.94
2022-11-09T08:55:31.245Z,95566.31
2022-11-09T08:57:59.897Z,95555.25
2022-11-09T09:00:27.366Z,95553.25
2022-11-09T09:02:54.705Z,95563.59
2022-11-09T09:05:22.658Z,95569.56
2022-11-09T09:07:49.746Z,95573.84
2022-11-09T09:10:16.868Z,95572.31
2022-11-09T09:12:43.977Z,95566.66
2022-11-09T09:15:11.091Z,95561.09
2022-11-09T09:17:38.248Z,95580.03
2022-11-09T09:20:05.828Z,95571.81
2022-11-09T09:22:33.477Z,95560.75
2022-11-09T09:25:00.587Z,95571.31
2022-11-09T09:27:29.374Z,95578.81
2022-11-09T09:29:56.918Z,95566.59
2022-11-09T09:32:24.139Z,95572.22
2022-11-09T09:34:51.294Z,95571.03
2022-11-09T09:37:18.838Z,95571.81
2022-11-09T09:39:45.906Z,95578.59
2022-11-09T09:42:18.820Z,95587.28
2022-11-09T09:45:00.072Z,95576.28
2022-11-09T09:47:46.089Z,95581.06
2022-11-09T09:50:20.794Z,95590.34
2022-11-09T09:53:17.724Z,95595.03
2022-11-09T09:55:44.472Z,95599.88
2022-11-09T09:58:12.930Z,95607.94
2022-11-09T10:00:41.485Z,95604.13
2022-11-09T10:03:17.610Z,95610.41
2022-11-09T10:05:57.093Z,95610.06
2022-11-09T10:08:31.318Z,95612.50
2022-11-09T10:11:22.322Z,95617.78
2022-11-09T10:13:55.380Z,95613.88
2022-11-09T10:16:57.989Z,95614.31
2022-11-09T10:19:51.138Z,95611.03
2022-11-09T10:22:39.648Z,95611.91
2022-11-09T10:25:27.566Z,95611.09
2022-11-09T10:28:13.086Z,95622.56
2022-11-09T10:30:40.698Z,95628.09
2022-11-09T10:33:10.703Z,95620.97
2022-11-09T10:35:45.001Z,95615.31
2022-11-09T10:38:21.209Z,95611.38
2022-11-09T10:41:26.052Z,95619.59
2022-11-09T10:44:17.771Z,95599.50
2022-11-09T10:47:09.746Z,95609.03
2022-11-09T10:50:22.086Z,95606.19
2022-11-09T10:53:20.950Z,95604.56
2022-11-09T10:56:21.781Z,95600.00
2022-11-09T10:59:35.819Z,95605.38
2022-11-09T11:02:24.296Z,95590.50
2022-11-09T11:05:09.912Z,95610.97
2022-11-09T11:07:55.673Z,95599.94
2022-11-09T11:10:41.266Z,95592.25
2022-11-09T11:13:27.177Z,95606.34
2022-11-09T11:16:15.798Z,95604.06
2022-11-09T11:19:02.099Z,95608.91
2022-11-09T11:22:19.631Z,95600.56
2022-11-09T11:25:19.808Z,95603.28
2022-11-09T11:28:21.795Z,95599.63
2022-11-09T11:31:19.039Z,95593.53
2022-11-09T11:34:10.456Z,95598.09
2022-11-09T11:37:08.206Z,95600.69
2022-11-09T11:40:05.596Z,95592.66
2022-11-09T11:43:18.988Z,95595.88
2022-11-09T11:46:27.586Z,95592.88
2022-11-09T11:49:22.505Z,95606.25
2022-11-09T11:52:37.219Z,95610.31
2022-11-09T11:55:34.847Z,95611.47
2022-11-09T11:58:55.105Z,95603.78
2022-11-09T12:01:50.552Z,95604.91
2022-11-09T12:04:42.349Z,95611.31
2022-11-09T12:07:43.073Z,95615.28
2022-11-09T12:10:57.063Z,95623.06
2022-11-09T12:13:57.130Z,95612.81
2022-11-09T12:17:22.886Z,95619.97
2022-11-09T12:20:34.367Z,95623.19
2022-11-09T12:23:24.200Z,95629.00
2022-11-09T12:26:45.468Z,95618.78
2022-11-09T12:29:44.286Z,95616.88
2022-11-09T12:32:50.790Z,95619.19
2022-11-09T12:35:55.938Z,95627.50
2022-11-09T12:38:49.142Z,95623.94
2022-11-09T12:41:37.752Z,95620.06
2022-11-09T12:44:32.255Z,95628.75
2022-11-09T12:47:27.064Z,95620.06
2022-11-09T12:50:16.443Z,95622.44
2022-11-09T12:53:04.305Z,95624.81
2022-11-09T12:56:02.465Z,95618.63
2022-11-09T12:58:48.340Z,95631.19
2022-11-09T13:01:33.897Z,95616.72
2022-11-09T13:04:22.101Z,95616.31
2022-11-09T13:07:14.041Z,95611.63
2022-11-09T13:10:02.264Z,95619.53
2022-11-09T13:12:47.771Z,95622.75
2022-11-09T13:15:34.722Z,95621.97
2022-11-09T13:18:34.981Z,95620.06
2022-11-09T13:21:21.677Z,95634.59
2022-11-09T13:24:32.377Z,95618.88
2022-11-09T13:27:33.470Z,95632.25
2022-11-09T13:30:24.970Z,95632.25
2022-11-09T13:33:22.721Z,95626.78
2022-11-09T13:36:09.300Z,95634.25
2022-11-09T13:39:23.419Z,95632.25
2022-11-09T13:42:28.462Z,95633.81
2022-11-09T13:45:41.442Z,95633.38
2022-11-09T13:48:46.278Z,95624.72
2022-11-09T13:51:34.831Z,95631.00
2022-11-09T13:54:37.433Z,95629.81
2022-11-09T13:57:25.456Z,95633.69
2022-11-09T14:00:23.431Z,95626.63
2022-11-09T14:03:24.906Z,95631.41
2022-11-09T14:06:12.597Z,95621.91
2022-11-09T14:08:59.668Z,95628.59
2022-11-09T14:12:02.645Z,95638.47
2022-11-09T14:14:57.371Z,95634.13
2022-11-09T14:17:54.814Z,95634.88
2022-11-09T14:21:09.712Z,95643.19
2022-11-09T14:24:01.155Z,95650.25
2022-11-09T14:27:14.418Z,95651.00
2022-11-09T14:30:03.765Z,95657.34
2022-11-09T14:32:51.607Z,95658.94
2022-11-09T14:35:39.161Z,95664.41
2022-11-09T14:38:28.874Z,95651.06
2022-11-09T14:41:22.643Z,95658.19
2022-11-09T14:44:28.223Z,95656.22
2022-11-09T14:47:25.165Z,95655.06
2022-11-09T14:50:17.900Z,95658.25
2022-11-09T14:53:05.682Z,95659.81
2022-11-09T14:55:53.458Z,95655.16
2022-11-09T14:58:42.274Z,95652.78
2022-11-09T15:01:28.789Z,95664.97
2022-11-09T15:04:20.807Z,95664.56
2022-11-09T15:07:06.909Z,95667.72
2022-11-09T15:10:00.531Z,95664.56
2022-11-09T15:12:56.177Z,95671.66
2022-11-09T15:15:49.643Z,95674.78
2022-11-09T15:18:41.649Z,95677.16
2022-11-09T15:21:27.170Z,95673.63
2022-11-09T15:24:16.812Z,95674.03
2022-11-09T15:27:02.778Z,95675.22
2022-11-09T15:29:48.518Z,95677.19
2022-11-09T15:32:37.958Z,95683.88
2022-11-09T15:35:23.624Z,95689.78
2022-11-09T15:38:30.851Z,95696.84
2022-11-09T15:41:19.381Z,95695.28
2022-11-09T15:44:05.950Z,95689.00
2022-11-09T15:46:53.380Z,95698.84
2022-11-09T15:49:39.607Z,95699.63
2022-11-09T15:52:25.675Z,95707.09
2022-11-09T15:55:15.967Z,95706.28
2022-11-09T15:58:01.628Z,95716.47
2022-11-09T16:00:47.633Z,95725.13
2022-11-09T16:03:33.289Z,95732.94
2022-11-09T16:06:22.166Z,95732.94
2022-11-09T16:09:08.183Z,95731.38
2022-11-09T16:11:53.768Z,95747.06
2022-11-09T16:14:40.274Z,95743.16
2022-11-09T16:17:25.872Z,95750.59
2022-11-09T16:20:11.888Z,95749.41
2022-11-09T16:22:57.433Z,95749.41
2022-11-09T16:25:44.660Z,95756.09
2022-11-09T16:28:30.175Z,95760.03
2022-11-09T16:31:16.038Z,95744.69
2022-11-09T16:34:01.496Z,95770.59
2022-11-09T16:36:53.843Z,95775.66
2022-11-09T16:39:42.276Z,95784.72
2022-11-09T16:42:28.082Z,95796.47
2022-11-09T16:45:16.518Z,95805.06
2022-11-09T16:48:10.215Z,95809.78
2022-11-09T16:50:56.105Z,95812.53
2022-11-09T16:53:41.733Z,95812.16
2022-11-09T16:56:27.573Z,95823.50
2022-11-09T16:59:14.346Z,95825.50
2022-11-09T17:01:59.855Z,95832.94
2022-11-09T17:04:45.748Z,95827.84
2022-11-09T17:07:42.167Z,95835.69
2022-11-09T17:10:28.639Z,95844.69
2022-11-09T17:13:14.243Z,95851.34
2022-11-09T17:16:06.945Z,95847.41
2022-11-09T17:18:54.009Z,95852.09
2022-11-09T17:21:39.763Z,95858.38
2022-11-09T17:24:26.765Z,95870.13
2022-11-09T17:27:12.878Z,95871.69
2022-11-09T17:29:58.652Z,95874.41
2022-11-09T17:32:46.058Z,95879.88
2022-11-09T17:35:36.412Z,95887.31
2022-11-09T17:38:22.363Z,95893.59
2022-11-09T17:41:19.639Z,95887.31
2022-11-09T17:44:05.805Z,95902.22
2022-11-09T17:46:51.528Z,95906.53
2022-11-09T17:49:37.143Z,95913.97
2022-11-09T17:52:22.901Z,95919.84
2022-11-09T17:55:08.588Z,95915.53
2022-11-09T17:57:54.357Z,95928.09
2022-11-09T18:00:40.295Z,95925.75
2022-11-09T18:03:26.105Z,95919.44
2022-11-09T18:06:23.973Z,95921.00
2022-11-09T18:12:16.328Z,95929.63
2022-11-09T18:15:01.853Z,95935.16
2022-11-09T18:17:47.575Z,95928.06
2022-11-09T18:20:33.624Z,95942.94
2022-11-09T18:23:19.477Z,95945.31
2022-11-09T18:26:07.297Z,95947.69
2022-11-09T18:28:55.719Z,95953.19
2022-11-09T18:31:41.483Z,95942.56
2022-11-09T18:34:27.127Z,95956.31
2022-11-09T18:37:12.821Z,95944.91
2022-11-09T18:39:58.705Z,95952.69
2022-11-09T18:42:44.388Z,95957.84
2022-11-09T18:45:30.298Z,95975.84
2022-11-09T18:48:15.961Z,95965.69
2022-11-09T18:51:01.870Z,95979.44
2022-11-09T18:53:48.392Z,95981.41
2022-11-09T18:56:33.717Z,95978.28
2022-11-09T18:59:19.906Z,95983.00
2022-11-09T19:02:07.271Z,95997.78
2022-11-09T19:04:52.714Z,95994.66
2022-11-09T19:07:39.153Z,95996.59
2022-11-09T19:10:24.843Z,95991.50
2022-11-09T19:13:10.411Z,96011.88
2022-11-09T19:15:58.382Z,96014.19
2022-11-09T19:18:44.468Z,96013.44
2022-11-09T19:21:38.255Z,96020.53
2022-11-09T19:24:25.547Z,96010.28
2022-11-09T19:27:11.151Z,96020.91
2022-11-09T19:29:56.980Z,96024.81
2022-11-09T19:32:42.471Z,96022.78
2022-11-09T19:35:33.480Z,96014.09
2022-11-09T19:38:19.966Z,96023.50
2022-11-09T19:41:06.537Z,96021.88
2022-11-09T19:43:54.588Z,96031.31
2022-11-09T19:46:40.796Z,96041.47
2022-11-09T19:49:26.580Z,96036.00
2022-11-09T19:52:12.666Z,96048.19
2022-11-09T19:54:58.674Z,96054.00
2022-11-09T19:57:44.319Z,96055.13
2022-11-09T20:00:29.982Z,96062.53
2022-11-09T20:03:15.720Z,96062.50
2022-11-09T20:06:02.362Z,96062.09
2022-11-09T20:08:48.010Z,96063.28
2022-11-09T20:11:52.318Z,96067.97
2022-11-09T20:14:37.967Z,96067.16
2022-11-09T20:17:23.904Z,96067.03
2022-11-09T20:20:10.541Z,96069.38
2022-11-09T20:22:56.192Z,96074.03
2022-11-09T20:25:42.102Z,96078.69
2022-11-09T20:28:27.802Z,96081.88
2022-11-09T20:31:16.577Z,96086.41
2022-11-09T20:34:02.415Z,96091.47
2022-11-09T20:36:48.127Z,96105.91
2022-11-09T20:39:35.293Z,96117.69
2022-11-09T20:42:21.005Z,96107.31
2022-11-09T20:45:06.927Z,96113.97
2022-11-09T20:48:38.210Z,96110.81
2022-11-09T20:51:06.502Z,96118.63
2022-11-09T20:53:52.209Z,96119.03
2022-11-09T20:56:37.908Z,96130.00
2022-11-09T20:59:23.608Z,96136.97
2022-11-09T21:02:14.457Z,96141.19
2022-11-09T21:05:00.852Z,96150.09
2022-11-09T21:07:46.536Z,96154.34
2022-11-09T21:10:32.330Z,96161.72
2022-11-09T21:13:18.208Z,96161.09
2022-11-09T21:16:15.705Z,96166.47
2022-11-09T21:19:01.362Z,96171.94
2022-11-09T21:21:47.062Z,96167.19
2022-11-09T21:24:51.397Z,96170.72
2022-11-09T21:28:06.339Z,96178.16
2022-11-09T21:30:51.995Z,96180.53
2022-11-09T21:33:37.397Z,96186.69
2022-11-09T21:36:23.460Z,96192.16
2022-11-09T21:39:11.328Z,96196.38
2022-11-09T21:41:58.075Z,96195.94
2022-11-09T21:44:43.967Z,96202.25
2022-11-09T21:47:30.078Z,96217.53
2022-11-09T21:50:15.711Z,96224.06
2022-11-09T21:53:01.533Z,96224.81
2022-11-09T21:55:47.349Z,96235.75
2022-11-09T21:58:33.352Z,96238.16
2022-11-09T22:01:19.849Z,96234.16
2022-11-09T22:04:08.374Z,96241.97
2022-11-09T22:06:53.861Z,96245.44
2022-11-09T22:10:05.963Z,96246.22
2022-11-09T22:13:03.650Z,96248.94
2022-11-09T22:16:07.699Z,96246.50
2022-11-09T22:19:12.149Z,96260.63
2022-11-09T22:21:57.914Z,96258.22
2022-11-09T22:24:43.711Z,96254.97
2022-11-09T22:27:33.072Z,96269.09
2022-11-09T22:30:18.669Z,96273.69
2022-11-09T22:33:04.260Z,96272.13
2022-11-09T22:35:56.892Z,96277.59
2022-11-09T22:38:42.339Z,96277.66
2022-11-09T22:41:28.066Z,96281.56
2022-11-09T22:44:13.955Z,96277.59
2022-11-09T22:46:59.554Z,96273.16
2022-11-09T22:49:45.275Z,96270.31
2022-11-09T22:52:30.668Z,96281.84
2022-11-09T22:55:18.216Z,96275.22
2022-11-09T22:58:04.341Z,96273.94
2022-11-09T23:00:50.556Z,96276.44
2022-11-09T23:03:36.423Z,96274.50
2022-11-09T23:06:23.429Z,96277.22
2022-11-09T23:09:09.004Z,96279.47
2022-11-09T23:11:54.828Z,96279.53
2022-11-09T23:15:00.978Z,96290.84
2022-11-09T23:18:05.538Z,96284.03
2022-11-09T23:20:51.200Z,96295.22
2022-11-09T23:23:37.493Z,96291.25
2022-11-09T23:26:24.036Z,96292.00
2022-11-09T23:29:09.813Z,96296.66
2022-11-09T23:31:57.134Z,96300.34
2022-11-09T23:34:42.776Z,96303.28
2022-11-09T23:37:28.562Z,96306.03
2022-11-09T23:40:14.475Z,96301.41
2022-11-09T23:43:05.884Z,96297.81
2022-11-09T23:45:51.381Z,96305.44
2022-11-09T23:48:38.232Z,96305.63
2022-11-09T23:51:23.756Z,96307.00
2022-11-09T23:54:09.469Z,96304.03
2022-11-09T23:56:55.346Z,96295.28
2022-11-09T23:59:41.220Z,96307.19
